Time;durP1;ratioP1;P1;durP2;ratioP2;P2;SDS_P1;SDS_P2;PMS_P1;PMS_P2;Temp;Humidity;BMP_temperature;BMP_pressure;BME280_temperature;BME280_humidity;BME280_pressure;Samples;Min_cycle;Max_cycle;Signal;HPM_P1;HPM_P2
2022/07/05 00:02:16;;;;;;;0.63;0.50;;;;;;;;;;5008044;28;20053;-84
2022/07/05 00:04:42;;;;;;;0.95;0.50;;;;;;;;;;5008446;28;20041;-84
2022/07/05 00:07:17;;;;;;;1.92;0.60;;;;;;;;;;5006959;28;20034;-84
2022/07/05 00:09:44;;;;;;;1.50;0.70;;;;;;;;;;4991057;28;20034;-84
2022/07/05 00:12:10;;;;;;;1.30;0.60;;;;;;;;;;5007189;28;20559;-84
2022/07/05 00:14:36;;;;;;;2.80;0.80;;;;;;;;;;5006880;28;20122;-84
2022/07/05 00:17:03;;;;;;;1.05;0.50;;;;;;;;;;4990652;28;20152;-84
2022/07/05 00:19:28;;;;;;;2.47;0.60;;;;;;;;;;5007174;28;20038;-85
2022/07/05 00:21:54;;;;;;;2.78;0.63;;;;;;;;;;4990353;28;20058;-84
2022/07/05 00:24:20;;;;;;;1.45;0.50;;;;;;;;;;5007601;28;20442;-84
2022/07/05 00:26:45;;;;;;;0.80;0.45;;;;;;;;;;5006852;28;20035;-85
2022/07/05 00:29:11;;;;;;;1.23;0.70;;;;;;;;;;4990307;28;20045;-84
2022/07/05 00:31:37;;;;;;;0.85;0.57;;;;;;;;;;4990670;28;20030;-85
2022/07/05 00:34:02;;;;;;;2.33;0.60;;;;;;;;;;4990525;28;20030;-84
2022/07/05 00:36:28;;;;;;;4.40;0.55;;;;;;;;;;4990270;28;20042;-83
2022/07/05 00:38:54;;;;;;;1.17;0.70;;;;;;;;;;4990510;28;20085;-84
2022/07/05 00:41:19;;;;;;;1.30;0.65;;;;;;;;;;5007863;28;20057;-84
2022/07/05 00:43:59;;;;;;;2.15;0.70;;;;;;;;;;4990516;28;20058;-85
2022/07/05 00:46:26;;;;;;;2.15;0.60;;;;;;;;;;4990528;28;20038;-85
2022/07/05 00:48:52;;;;;;;1.02;0.70;;;;;;;;;;5006831;28;20045;-84
2022/07/05 00:51:18;;;;;;;0.70;0.60;;;;;;;;;;5007028;28;20039;-85
2022/07/05 00:53:44;;;;;;;1.67;0.70;;;;;;;;;;5007814;28;20102;-85
2022/07/05 00:56:11;;;;;;;1.45;0.80;;;;;;;;;;4990113;28;20037;-85
2022/07/05 00:58:36;;;;;;;1.13;0.70;;;;;;;;;;4989748;28;20026;-85
2022/07/05 01:01:04;;;;;;;1.42;0.60;;;;;;;;;;5007812;28;20402;-85
2022/07/05 01:03:30;;;;;;;1.70;0.75;;;;;;;;;;4994137;28;20038;-84
2022/07/05 01:05:56;;;;;;;1.23;0.60;;;;;;;;;;5010241;28;20033;-85
2022/07/05 01:08:23;;;;;;;1.45;0.70;;;;;;;;;;5011546;28;20038;-85
2022/07/05 01:10:51;;;;;;;1.35;0.60;;;;;;;;;;4993511;28;20057;-85
2022/07/05 01:13:17;;;;;;;1.95;0.60;;;;;;;;;;5009889;28;20045;-84
2022/07/05 01:15:43;;;;;;;1.65;0.82;;;;;;;;;;4992868;28;20038;-84
2022/07/05 01:18:09;;;;;;;1.05;0.57;;;;;;;;;;5009732;28;20038;-85
2022/07/05 01:20:36;;;;;;;2.22;0.70;;;;;;;;;;4993601;28;20045;-85
2022/07/05 01:23:03;;;;;;;0.73;0.65;;;;;;;;;;5010003;28;20038;-84
2022/07/05 01:25:29;;;;;;;3.15;0.63;;;;;;;;;;4993435;28;20038;-85
2022/07/05 01:27:57;;;;;;;2.88;0.57;;;;;;;;;;5010337;28;20057;-85
2022/07/05 01:30:23;;;;;;;1.35;0.50;;;;;;;;;;4993324;28;20030;-85
2022/07/05 01:32:50;;;;;;;1.13;0.70;;;;;;;;;;4993732;28;20038;-84
2022/07/05 01:35:20;;;;;;;0.73;0.55;;;;;;;;;;5009358;28;20026;-85
2022/07/05 01:37:50;;;;;;;0.77;0.60;;;;;;;;;;4993040;28;20037;-85
2022/07/05 01:40:17;;;;;;;0.57;0.57;;;;;;;;;;4993289;28;20061;-85
2022/07/05 01:42:43;;;;;;;0.95;0.45;;;;;;;;;;5008646;28;20407;-85
2022/07/05 01:45:09;;;;;;;1.50;0.60;;;;;;;;;;4992965;28;20049;-84
2022/07/05 01:47:45;;;;;;;0.70;0.50;;;;;;;;;;5009209;28;20027;-85
2022/07/05 01:50:14;;;;;;;0.52;0.52;;;;;;;;;;4993029;28;20477;-85
2022/07/05 01:52:43;;;;;;;0.40;0.40;;;;;;;;;;4992437;28;20118;-85
2022/07/05 01:55:09;;;;;;;1.10;0.70;;;;;;;;;;5008973;28;20502;-85
2022/07/05 01:57:35;;;;;;;0.93;0.60;;;;;;;;;;4992079;28;20046;-85
2022/07/05 02:00:01;;;;;;;1.27;0.50;;;;;;;;;;4992478;28;20040;-84
2022/07/05 02:02:27;;;;;;;2.72;0.70;;;;;;;;;;4992829;28;20053;-85
2022/07/05 02:04:52;;;;;;;0.88;0.60;;;;;;;;;;5008777;28;20030;-85
2022/07/05 02:07:19;;;;;;;1.55;0.57;;;;;;;;;;4992516;28;20062;-84
2022/07/05 02:09:45;;;;;;;3.60;0.88;;;;;;;;;;4992342;28;20066;-85
2022/07/05 02:12:10;;;;;;;0.70;0.60;;;;;;;;;;5007305;28;20026;-85
2022/07/05 02:14:36;;;;;;;1.00;0.68;;;;;;;;;;4991418;28;20026;-85
2022/07/05 02:17:06;;;;;;;1.30;0.70;;;;;;;;;;4992546;28;20041;-85
2022/07/05 02:19:34;;;;;;;0.50;0.50;;;;;;;;;;5008286;28;20034;-85
2022/07/05 02:22:00;;;;;;;1.33;0.55;;;;;;;;;;4991530;28;20038;-85
2022/07/05 02:24:25;;;;;;;2.45;0.50;;;;;;;;;;4991490;28;20044;-84
2022/07/05 02:27:03;;;;;;;3.45;0.80;;;;;;;;;;5007905;28;20432;-85
2022/07/05 02:29:29;;;;;;;1.25;0.55;;;;;;;;;;4975612;28;20045;-85
2022/07/05 02:31:55;;;;;;;1.85;0.60;;;;;;;;;;4991985;28;20177;-85
2022/07/05 02:34:22;;;;;;;1.23;0.47;;;;;;;;;;5008072;28;20038;-85
2022/07/05 02:36:47;;;;;;;2.88;0.70;;;;;;;;;;4991466;28;20038;-85
2022/07/05 02:39:14;;;;;;;0.95;0.60;;;;;;;;;;5007528;28;20087;-85
2022/07/05 02:41:40;;;;;;;1.00;0.60;;;;;;;;;;5007990;28;20038;-85
2022/07/05 02:44:06;;;;;;;1.42;0.63;;;;;;;;;;4992874;28;20513;-84
2022/07/05 02:46:32;;;;;;;1.30;0.50;;;;;;;;;;4991769;28;20038;-85
2022/07/05 02:49:00;;;;;;;2.83;0.80;;;;;;;;;;4992005;28;20121;-85
2022/07/05 02:51:30;;;;;;;2.92;0.60;;;;;;;;;;4992050;28;20038;-85
2022/07/05 02:53:56;;;;;;;1.02;0.60;;;;;;;;;;4991220;28;20041;-84
2022/07/05 02:56:22;;;;;;;2.45;0.60;;;;;;;;;;4991544;28;20030;-84
2022/07/05 02:58:48;;;;;;;1.55;0.70;;;;;;;;;;4991467;28;20026;-85
2022/07/05 03:01:14;;;;;;;2.90;0.60;;;;;;;;;;5006672;28;20053;-85
2022/07/05 03:03:40;;;;;;;1.15;0.75;;;;;;;;;;4990959;28;20034;-85
2022/07/05 03:06:07;;;;;;;2.80;0.70;;;;;;;;;;4991518;28;20065;-84
2022/07/05 03:08:35;;;;;;;1.00;0.50;;;;;;;;;;4991621;28;20030;-85
2022/07/05 03:11:01;;;;;;;1.25;0.50;;;;;;;;;;4991266;28;20042;-85
2022/07/05 03:13:29;;;;;;;1.38;0.60;;;;;;;;;;5006564;28;20467;-84
2022/07/05 03:15:55;;;;;;;0.57;0.57;;;;;;;;;;4974650;28;20045;-85
2022/07/05 03:18:22;;;;;;;0.52;0.52;;;;;;;;;;5007317;28;20034;-84
2022/07/05 03:20:48;;;;;;;1.67;0.60;;;;;;;;;;5007779;28;20558;-84
2022/07/05 03:23:15;;;;;;;2.15;0.70;;;;;;;;;;5007100;28;20097;-85
2022/07/05 03:25:48;;;;;;;2.63;0.68;;;;;;;;;;4990703;28;20030;-84
2022/07/05 03:28:13;;;;;;;1.20;0.60;;;;;;;;;;4990717;28;20018;-84
2022/07/05 03:30:41;;;;;;;3.00;0.90;;;;;;;;;;4991336;28;20097;-85
2022/07/05 03:33:07;;;;;;;1.10;0.60;;;;;;;;;;5006200;28;20039;-85
2022/07/05 03:35:36;;;;;;;0.60;0.50;;;;;;;;;;4991350;28;20038;-84
2022/07/05 03:38:02;;;;;;;0.73;0.60;;;;;;;;;;5007372;28;20106;-84
2022/07/05 03:40:27;;;;;;;2.03;0.80;;;;;;;;;;5007015;28;20036;-85
2022/07/05 03:42:53;;;;;;;0.60;0.50;;;;;;;;;;5007207;28;20034;-85
2022/07/05 03:45:19;;;;;;;1.58;0.70;;;;;;;;;;4990448;28;20030;-84
2022/07/05 03:47:45;;;;;;;0.82;0.70;;;;;;;;;;5006711;28;20101;-84
2022/07/05 03:50:13;;;;;;;1.13;0.70;;;;;;;;;;5007356;28;20038;-85
2022/07/05 03:52:39;;;;;;;1.00;0.57;;;;;;;;;;4990801;28;20223;-84
2022/07/05 03:55:06;;;;;;;0.70;0.70;;;;;;;;;;5007922;28;20027;-84
2022/07/05 03:57:32;;;;;;;1.05;0.80;;;;;;;;;;5006879;28;20034;-85
2022/07/05 03:59:59;;;;;;;1.80;0.80;;;;;;;;;;4991266;28;20459;-85
2022/07/05 04:02:24;;;;;;;2.40;1.00;;;;;;;;;;4990776;28;20049;-84
2022/07/05 04:04:51;;;;;;;1.98;0.85;;;;;;;;;;5007020;28;20030;-85
2022/07/05 04:07:18;;;;;;;0.85;0.75;;;;;;;;;;5007211;28;20031;-85
2022/07/05 04:09:43;;;;;;;1.85;0.80;;;;;;;;;;4990331;28;20041;-84
2022/07/05 04:12:10;;;;;;;1.45;0.90;;;;;;;;;;5007258;28;20094;-85
2022/07/05 04:14:37;;;;;;;1.10;0.70;;;;;;;;;;4991365;28;20042;-84
2022/07/05 04:17:03;;;;;;;1.50;0.85;;;;;;;;;;4991360;28;20165;-85
2022/07/05 04:19:30;;;;;;;1.63;0.98;;;;;;;;;;4990645;28;20034;-84
2022/07/05 04:21:56;;;;;;;0.77;0.70;;;;;;;;;;4990850;28;20037;-84
2022/07/05 04:24:21;;;;;;;2.22;0.90;;;;;;;;;;4990033;28;20101;-83
2022/07/05 04:26:48;;;;;;;1.70;0.75;;;;;;;;;;4989964;28;20113;-87
2022/07/05 04:29:14;;;;;;;1.45;0.90;;;;;;;;;;4982317;28;20081;-85
2022/07/05 04:31:39;;;;;;;1.88;0.90;;;;;;;;;;4982797;28;20054;-87
2022/07/05 04:34:05;;;;;;;1.77;1.00;;;;;;;;;;4998203;28;20045;-85
2022/07/05 04:36:34;;;;;;;1.25;0.70;;;;;;;;;;4999620;28;20042;-87
2022/07/05 04:39:00;;;;;;;2.75;1.00;;;;;;;;;;4986393;28;20125;-87
2022/07/05 04:41:28;;;;;;;1.35;0.63;;;;;;;;;;4986283;28;20463;-86
2022/07/05 04:43:54;;;;;;;1.48;0.93;;;;;;;;;;4986289;28;20495;-85
2022/07/05 04:46:19;;;;;;;1.45;1.00;;;;;;;;;;4985669;28;20121;-86
2022/07/05 04:48:48;;;;;;;1.75;0.90;;;;;;;;;;4986381;28;20038;-86
2022/07/05 04:51:14;;;;;;;1.00;0.85;;;;;;;;;;5001469;28;20040;-86
2022/07/05 04:53:42;;;;;;;2.28;1.05;;;;;;;;;;5001066;28;20030;-86
2022/07/05 04:56:07;;;;;;;2.25;0.90;;;;;;;;;;5002127;28;20038;-86
2022/07/05 04:58:33;;;;;;;1.75;0.93;;;;;;;;;;4985066;28;20062;-86
2022/07/05 05:00:59;;;;;;;1.88;0.95;;;;;;;;;;5001895;28;20549;-86
2022/07/05 05:03:25;;;;;;;1.90;0.90;;;;;;;;;;5002011;28;20034;-85
2022/07/05 05:05:51;;;;;;;4.70;1.00;;;;;;;;;;5000529;28;20069;-86
2022/07/05 05:08:17;;;;;;;3.92;1.00;;;;;;;;;;4985626;28;20042;-87
2022/07/05 05:10:42;;;;;;;2.92;1.00;;;;;;;;;;4984412;28;20030;-86
2022/07/05 05:13:08;;;;;;;3.15;1.80;;;;;;;;;;5001046;28;20101;-86
2022/07/05 05:15:33;;;;;;;4.03;1.50;;;;;;;;;;4984122;28;20021;-86
2022/07/05 05:17:59;;;;;;;2.90;1.02;;;;;;;;;;5000586;28;20034;-86
2022/07/05 05:20:25;;;;;;;1.73;1.00;;;;;;;;;;5000098;28;20406;-86
2022/07/05 05:22:50;;;;;;;3.40;1.00;;;;;;;;;;5001946;28;20026;-87
2022/07/05 05:25:16;;;;;;;2.15;1.10;;;;;;;;;;5001353;28;20045;-86
2022/07/05 05:27:43;;;;;;;1.00;0.90;;;;;;;;;;5000864;28;20042;-87
2022/07/05 05:30:10;;;;;;;0.90;0.80;;;;;;;;;;4985167;28;20035;-87
2022/07/05 05:32:36;;;;;;;1.60;1.00;;;;;;;;;;4985297;28;20057;-87
2022/07/05 05:35:01;;;;;;;1.73;0.98;;;;;;;;;;4984802;28;20049;-86
2022/07/05 05:37:27;;;;;;;1.77;1.10;;;;;;;;;;5001598;28;20527;-86
2022/07/05 05:39:52;;;;;;;3.40;1.50;;;;;;;;;;5001321;28;20062;-86
2022/07/05 05:42:18;;;;;;;2.58;0.90;;;;;;;;;;5001347;28;20384;-87
2022/07/05 05:44:44;;;;;;;1.40;0.88;;;;;;;;;;5001638;28;20038;-87
2022/07/05 05:47:09;;;;;;;4.20;0.98;;;;;;;;;;5001089;28;20088;-87
2022/07/05 05:49:35;;;;;;;1.30;1.00;;;;;;;;;;4983915;28;20038;-86
2022/07/05 05:52:00;;;;;;;3.30;0.95;;;;;;;;;;5000475;28;20510;-87
2022/07/05 05:54:26;;;;;;;1.90;0.90;;;;;;;;;;4983881;28;20033;-86
2022/07/05 05:56:52;;;;;;;1.27;0.80;;;;;;;;;;5001556;28;20398;-86
2022/07/05 05:59:17;;;;;;;1.98;0.90;;;;;;;;;;5000978;28;20143;-86
2022/07/05 06:01:43;;;;;;;3.90;0.80;;;;;;;;;;4983268;28;20058;-87
2022/07/05 06:04:08;;;;;;;1.52;1.00;;;;;;;;;;4999581;28;20061;-86
2022/07/05 06:06:34;;;;;;;4.50;0.85;;;;;;;;;;4999967;28;20030;-86
2022/07/05 06:08:59;;;;;;;2.17;0.90;;;;;;;;;;4983546;28;20034;-86
2022/07/05 06:11:25;;;;;;;0.90;0.80;;;;;;;;;;4998678;28;20384;-86
2022/07/05 06:13:51;;;;;;;1.52;1.00;;;;;;;;;;4982785;28;20049;-86
2022/07/05 06:16:16;;;;;;;2.03;1.13;;;;;;;;;;4999169;28;20113;-86
2022/07/05 06:18:42;;;;;;;2.58;0.95;;;;;;;;;;4998698;28;20103;-86
2022/07/05 06:21:07;;;;;;;2.35;0.90;;;;;;;;;;4982360;28;20287;-87
2022/07/05 06:23:33;;;;;;;4.10;1.10;;;;;;;;;;5000488;28;20081;-86
2022/07/05 06:25:58;;;;;;;2.45;1.02;;;;;;;;;;4982598;28;20042;-87
2022/07/05 06:28:24;;;;;;;2.05;1.30;;;;;;;;;;4998102;28;20069;-87
2022/07/05 06:30:50;;;;;;;2.10;1.00;;;;;;;;;;4997618;28;20065;-87
2022/07/05 06:33:15;;;;;;;3.13;0.85;;;;;;;;;;4982213;28;20042;-86
2022/07/05 06:35:41;;;;;;;0.80;0.80;;;;;;;;;;4998745;28;20108;-86
2022/07/05 06:38:08;;;;;;;2.90;0.80;;;;;;;;;;4997460;28;20030;-87
2022/07/05 06:40:39;;;;;;;1.38;0.85;;;;;;;;;;4998395;28;20046;-86
2022/07/05 06:43:06;;;;;;;4.75;0.90;;;;;;;;;;4981742;28;20042;-86
2022/07/05 06:45:59;;;;;;;2.53;0.80;;;;;;;;;;4993385;28;20111;-87
2022/07/05 06:48:25;;;;;;;1.80;0.82;;;;;;;;;;4997874;28;20045;-87
2022/07/05 06:50:50;;;;;;;4.57;1.45;;;;;;;;;;4997646;28;20035;-86
2022/07/05 06:53:16;;;;;;;2.70;1.55;;;;;;;;;;4980441;28;20465;-87
2022/07/05 06:55:44;;;;;;;3.15;0.90;;;;;;;;;;4998093;28;20038;-87
2022/07/05 06:58:11;;;;;;;3.40;0.90;;;;;;;;;;4998600;28;20033;-87
2022/07/05 07:00:37;;;;;;;1.30;0.80;;;;;;;;;;4997587;28;20034;-87
2022/07/05 07:03:03;;;;;;;1.02;0.82;;;;;;;;;;4997444;28;20023;-86
2022/07/05 07:05:29;;;;;;;1.40;0.88;;;;;;;;;;4997297;28;20014;-86
2022/07/05 07:10:39;;;;;;;3.33;0.80;;;;;;;;;;4997576;28;20410;-86
2022/07/05 07:13:04;;;;;;;2.95;1.00;;;;;;;;;;4996705;28;20052;-86
2022/07/05 07:15:30;;;;;;;1.20;0.80;;;;;;;;;;4996482;28;20037;-87
2022/07/05 07:17:57;;;;;;;1.33;0.90;;;;;;;;;;4980494;28;20026;-87
2022/07/05 07:20:23;;;;;;;1.48;0.85;;;;;;;;;;4981035;28;20041;-87
2022/07/05 07:22:48;;;;;;;1.25;0.80;;;;;;;;;;4980135;28;20101;-87
2022/07/05 07:25:14;;;;;;;1.10;0.90;;;;;;;;;;4980504;28;20038;-87
2022/07/05 07:27:50;;;;;;;3.55;0.90;;;;;;;;;;4996935;28;20033;-86
2022/07/05 07:30:18;;;;;;;0.98;0.80;;;;;;;;;;4996939;28;20406;-87
2022/07/05 07:32:44;;;;;;;2.78;1.20;;;;;;;;;;4998681;28;20451;-86
2022/07/05 07:35:10;;;;;;;1.15;0.80;;;;;;;;;;4995524;28;20088;-87
2022/07/05 07:37:36;;;;;;;1.45;0.95;;;;;;;;;;4996363;28;20479;-87
2022/07/05 07:40:06;;;;;;;1.88;0.85;;;;;;;;;;4997116;28;20036;-87
2022/07/05 07:42:33;;;;;;;1.27;0.90;;;;;;;;;;4995945;28;20042;-87
2022/07/05 07:44:59;;;;;;;1.75;0.90;;;;;;;;;;4996856;28;20152;-87
2022/07/05 07:47:24;;;;;;;9.13;1.55;;;;;;;;;;4980606;28;20495;-87
2022/07/05 07:49:50;;;;;;;1.83;1.10;;;;;;;;;;4980576;28;20030;-86
2022/07/05 07:52:16;;;;;;;1.33;0.90;;;;;;;;;;4980036;28;20114;-87
2022/07/05 07:54:42;;;;;;;2.53;1.00;;;;;;;;;;4996255;28;20081;-87
2022/07/05 07:57:07;;;;;;;1.58;1.20;;;;;;;;;;4980264;28;20034;-87
2022/07/05 07:59:34;;;;;;;4.47;1.23;;;;;;;;;;4996773;28;20123;-87
2022/07/05 08:02:00;;;;;;;2.25;1.20;;;;;;;;;;4998470;28;20451;-87
2022/07/05 08:04:26;;;;;;;2.78;0.98;;;;;;;;;;4980618;28;20490;-87
2022/07/05 08:06:51;;;;;;;2.22;1.20;;;;;;;;;;4980233;28;20427;-86
2022/07/05 08:09:17;;;;;;;3.50;1.20;;;;;;;;;;4980304;28;20034;-87
2022/07/05 08:11:46;;;;;;;2.35;1.20;;;;;;;;;;4997952;28;20502;-86
2022/07/05 08:14:13;;;;;;;2.10;1.10;;;;;;;;;;4983639;28;20117;-87
2022/07/05 08:16:38;;;;;;;2.92;1.33;;;;;;;;;;5000122;28;20026;-87
2022/07/05 08:21:48;;;;;;;2.08;1.20;;;;;;;;;;5000588;28;20030;-87
2022/07/05 08:24:14;;;;;;;2.83;1.38;;;;;;;;;;4999104;28;20410;-87
2022/07/05 08:26:41;;;;;;;4.25;2.45;;;;;;;;;;4999932;28;20072;-86
2022/07/05 08:29:09;;;;;;;1.80;1.20;;;;;;;;;;5000197;28;20089;-87
2022/07/05 08:31:41;;;;;;;1.95;1.35;;;;;;;;;;5000083;28;20034;-87
2022/07/05 08:34:07;;;;;;;2.42;1.30;;;;;;;;;;4998852;28;20049;-87
2022/07/05 08:36:33;;;;;;;2.00;1.30;;;;;;;;;;4999156;28;20072;-87
2022/07/05 08:38:58;;;;;;;4.45;1.40;;;;;;;;;;4999169;28;20030;-87
2022/07/05 08:41:24;;;;;;;2.88;1.45;;;;;;;;;;5000246;28;20037;-88
2022/07/05 08:43:51;;;;;;;2.92;1.40;;;;;;;;;;4998950;28;20038;-87
2022/07/05 08:46:18;;;;;;;1.92;1.20;;;;;;;;;;4982562;28;20015;-87
2022/07/05 08:48:48;;;;;;;2.63;1.40;;;;;;;;;;4981661;28;20034;-88
2022/07/05 08:51:16;;;;;;;2.17;1.45;;;;;;;;;;4997726;28;20487;-87
2022/07/05 08:53:43;;;;;;;6.78;1.60;;;;;;;;;;4998317;28;20483;-87
2022/07/05 08:56:11;;;;;;;2.60;1.40;;;;;;;;;;4999371;28;20042;-86
2022/07/05 08:58:38;;;;;;;2.92;1.50;;;;;;;;;;5000142;28;20431;-86
2022/07/05 09:01:05;;;;;;;2.08;1.30;;;;;;;;;;4982468;28;20038;-87
2022/07/05 09:03:34;;;;;;;3.53;1.55;;;;;;;;;;4998236;28;20034;-86
2022/07/05 09:06:01;;;;;;;2.22;1.48;;;;;;;;;;4998087;28;20062;-87
2022/07/05 09:08:32;;;;;;;1.88;1.40;;;;;;;;;;4999296;28;20045;-86
2022/07/05 09:11:02;;;;;;;3.33;1.50;;;;;;;;;;4982950;28;20407;-87
2022/07/05 09:13:27;;;;;;;1.40;1.30;;;;;;;;;;4981643;28;20168;-87
2022/07/05 09:15:54;;;;;;;5.75;2.10;;;;;;;;;;4981795;28;20069;-86
2022/07/05 09:18:38;;;;;;;2.38;1.50;;;;;;;;;;4981834;28;20040;-86
2022/07/05 09:21:16;;;;;;;2.42;1.50;;;;;;;;;;4997932;28;20049;-86
2022/07/05 09:23:42;;;;;;;2.03;1.40;;;;;;;;;;4981336;28;20038;-86
2022/07/05 09:26:08;;;;;;;5.78;1.77;;;;;;;;;;4981385;28;20053;-86
2022/07/05 09:28:34;;;;;;;2.92;1.55;;;;;;;;;;4999306;28;20475;-87
2022/07/05 09:30:59;;;;;;;4.88;1.60;;;;;;;;;;4998265;28;20586;-87
2022/07/05 09:33:25;;;;;;;2.25;1.33;;;;;;;;;;4981445;28;20034;-87
2022/07/05 09:35:58;;;;;;;5.20;1.50;;;;;;;;;;5000496;28;20038;-87
2022/07/05 09:38:24;;;;;;;1.73;1.33;;;;;;;;;;4998370;28;20406;-87
2022/07/05 09:40:54;;;;;;;2.28;1.40;;;;;;;;;;4997278;28;20034;-87
2022/07/05 09:43:22;;;;;;;2.20;1.50;;;;;;;;;;4997859;28;20487;-86
2022/07/05 09:46:00;;;;;;;3.20;1.38;;;;;;;;;;4981677;28;20113;-86
2022/07/05 09:48:32;;;;;;;1.73;1.38;;;;;;;;;;4997915;28;20487;-87
2022/07/05 09:51:24;;;;;;;2.15;1.55;;;;;;;;;;4997526;28;20089;-86
2022/07/05 09:53:52;;;;;;;5.35;1.40;;;;;;;;;;4994551;28;20046;-87
2022/07/05 09:56:18;;;;;;;1.70;1.33;;;;;;;;;;4997645;28;20042;-87
2022/07/05 09:58:45;;;;;;;2.53;1.33;;;;;;;;;;4981839;28;20026;-87
2022/07/05 10:01:26;;;;;;;4.93;1.73;;;;;;;;;;4981351;28;20045;-87
2022/07/05 10:03:53;;;;;;;3.70;1.38;;;;;;;;;;4998459;28;20038;-86
2022/07/05 10:06:19;;;;;;;5.25;1.48;;;;;;;;;;4982230;28;20048;-87
2022/07/05 10:08:48;;;;;;;3.58;1.60;;;;;;;;;;4997984;28;20030;-87
2022/07/05 10:11:14;;;;;;;2.80;1.40;;;;;;;;;;4997412;28;20034;-87
2022/07/05 10:13:40;;;;;;;3.22;1.40;;;;;;;;;;4980624;28;20045;-87
2022/07/05 10:16:06;;;;;;;2.38;1.40;;;;;;;;;;4980498;28;20050;-87
2022/07/05 10:18:33;;;;;;;1.88;1.35;;;;;;;;;;4997534;28;20033;-87
2022/07/05 10:21:00;;;;;;;1.52;1.23;;;;;;;;;;4997557;28;20030;-86
2022/07/05 10:23:27;;;;;;;2.72;1.60;;;;;;;;;;4980869;28;20038;-87
2022/07/05 10:25:54;;;;;;;2.97;1.48;;;;;;;;;;4981299;28;20042;-86
2022/07/05 10:28:21;;;;;;;4.30;1.23;;;;;;;;;;4999277;28;20019;-87
2022/07/05 10:30:51;;;;;;;4.93;1.60;;;;;;;;;;4998263;28;20101;-87
2022/07/05 10:33:20;;;;;;;3.30;1.50;;;;;;;;;;4980788;28;20523;-87
2022/07/05 10:35:47;;;;;;;3.17;1.40;;;;;;;;;;4980229;28;20026;-87
2022/07/05 10:38:14;;;;;;;4.88;1.40;;;;;;;;;;4997712;28;20057;-87
2022/07/05 10:40:43;;;;;;;2.75;1.40;;;;;;;;;;4981440;28;20552;-87
2022/07/05 10:43:10;;;;;;;1.95;1.20;;;;;;;;;;4982058;28;20030;-87
2022/07/05 10:45:38;;;;;;;2.45;1.30;;;;;;;;;;4997346;28;20719;-87
2022/07/05 10:48:16;;;;;;;2.85;1.60;;;;;;;;;;4997288;28;20408;-87
2022/07/05 10:51:08;;;;;;;2.38;1.50;;;;;;;;;;4997911;28;20038;-86
2022/07/05 10:53:34;;;;;;;3.95;1.30;;;;;;;;;;4996609;28;20034;-87
2022/07/05 10:56:03;;;;;;;2.67;1.40;;;;;;;;;;4980643;28;20074;-87
2022/07/05 10:58:41;;;;;;;2.50;1.40;;;;;;;;;;4997474;28;20479;-87
2022/07/05 11:01:15;;;;;;;3.55;1.30;;;;;;;;;;4980889;28;20084;-86
2022/07/05 11:03:41;;;;;;;5.57;1.60;;;;;;;;;;4980504;28;20041;-87
2022/07/05 11:06:10;;;;;;;2.40;1.50;;;;;;;;;;4996924;28;20030;-87
2022/07/05 11:09:03;;;;;;;2.97;1.63;;;;;;;;;;4997182;28;20117;-86
2022/07/05 11:11:29;;;;;;;5.00;1.83;;;;;;;;;;4997476;28;20038;-86
2022/07/05 11:13:58;;;;;;;2.25;1.50;;;;;;;;;;4980689;28;20038;-84
2022/07/05 11:16:28;;;;;;;4.40;1.70;;;;;;;;;;4979740;28;20046;-86
2022/07/05 11:19:16;;;;;;;3.58;1.63;;;;;;;;;;4997492;28;20034;-87
2022/07/05 11:22:00;;;;;;;2.38;1.75;;;;;;;;;;4997586;28;20058;-86
2022/07/05 11:24:28;;;;;;;2.63;1.80;;;;;;;;;;4980690;28;20037;-86
2022/07/05 11:26:58;;;;;;;6.55;1.77;;;;;;;;;;4996606;28;20034;-87
2022/07/05 11:29:42;;;;;;;2.25;1.70;;;;;;;;;;4981052;28;20044;-86
2022/07/05 11:32:09;;;;;;;3.03;1.77;;;;;;;;;;4982341;28;20222;-87
2022/07/05 11:34:36;;;;;;;2.30;1.55;;;;;;;;;;4981770;28;20030;-87
2022/07/05 11:37:13;;;;;;;3.17;1.75;;;;;;;;;;4982095;28;20049;-88
2022/07/05 11:39:42;;;;;;;2.78;1.73;;;;;;;;;;4997576;28;20093;-88
2022/07/05 11:42:09;;;;;;;5.63;1.73;;;;;;;;;;4997314;28;20070;-85
2022/07/05 11:44:36;;;;;;;3.45;1.50;;;;;;;;;;4980387;28;20034;-85
2022/07/05 11:47:02;;;;;;;5.18;1.60;;;;;;;;;;4996802;28;20038;-88
2022/07/05 11:49:27;;;;;;;3.67;1.52;;;;;;;;;;4981699;28;20041;-87
2022/07/05 11:52:03;;;;;;;2.05;1.40;;;;;;;;;;4998128;28;20069;-88
2022/07/05 11:54:30;;;;;;;3.38;1.60;;;;;;;;;;4999644;28;20060;-88
2022/07/05 11:56:56;;;;;;;3.15;1.60;;;;;;;;;;4981400;28;20495;-88
2022/07/05 11:59:24;;;;;;;2.30;1.60;;;;;;;;;;4981863;28;20052;-88
2022/07/05 12:01:50;;;;;;;5.07;1.83;;;;;;;;;;4998771;28;20061;-87
2022/07/05 12:04:28;;;;;;;2.38;1.60;;;;;;;;;;4980163;28;20030;-86
2022/07/05 12:06:55;;;;;;;4.93;1.73;;;;;;;;;;4997593;28;20041;-86
2022/07/05 12:12:42;;;;;;;4.13;1.98;;;;;;;;;;4997688;28;20110;-87
2022/07/05 12:15:15;;;;;;;2.97;1.50;;;;;;;;;;4996408;28;20380;-86
2022/07/05 12:17:43;;;;;;;4.32;1.55;;;;;;;;;;4996559;28;20407;-87
2022/07/05 12:20:12;;;;;;;4.03;1.70;;;;;;;;;;4997182;28;20061;-86
2022/07/05 12:22:40;;;;;;;2.38;1.58;;;;;;;;;;4997707;28;20022;-87
2022/07/05 12:25:09;;;;;;;2.13;1.50;;;;;;;;;;4996043;28;20113;-87
2022/07/05 12:27:37;;;;;;;4.82;1.90;;;;;;;;;;4980004;28;20045;-88
2022/07/05 12:30:04;;;;;;;4.07;1.50;;;;;;;;;;4979818;28;20030;-86
2022/07/05 12:32:30;;;;;;;2.83;1.42;;;;;;;;;;4979638;28;20034;-87
2022/07/05 12:34:57;;;;;;;2.22;1.40;;;;;;;;;;4996527;28;20030;-86
2022/07/05 12:37:24;;;;;;;2.83;1.73;;;;;;;;;;4979515;28;20089;-87
2022/07/05 12:40:01;;;;;;;3.08;1.48;;;;;;;;;;4980032;28;20030;-86
2022/07/05 12:42:38;;;;;;;4.55;1.60;;;;;;;;;;4979884;28;20034;-87
2022/07/05 12:45:23;;;;;;;5.72;1.60;;;;;;;;;;4980709;28;20045;-86
2022/07/05 12:47:54;;;;;;;2.92;1.60;;;;;;;;;;4979586;28;20082;-87
2022/07/05 12:50:24;;;;;;;4.05;1.48;;;;;;;;;;4997469;28;20058;-87
2022/07/05 12:58:53;;;;;;;4.07;1.60;;;;;;;;;;4999004;28;20491;-87
2022/07/05 13:01:34;;;;;;;3.13;1.40;;;;;;;;;;4998965;28;20038;-86
2022/07/05 13:04:08;;;;;;;7.15;1.67;;;;;;;;;;5000045;28;20101;-87
2022/07/05 13:06:58;;;;;;;2.55;1.75;;;;;;;;;;4999492;28;20121;-86
2022/07/05 13:09:32;;;;;;;3.00;1.60;;;;;;;;;;5000035;28;20038;-87
2022/07/05 13:12:24;;;;;;;4.72;1.65;;;;;;;;;;4981980;28;20034;-87
2022/07/05 13:14:53;;;;;;;2.53;1.50;;;;;;;;;;4999313;28;20108;-86
2022/07/05 13:17:20;;;;;;;4.80;1.50;;;;;;;;;;4998032;28;20030;-87
2022/07/05 13:19:47;;;;;;;6.60;1.67;;;;;;;;;;4982731;28;20029;-87
2022/07/05 13:22:13;;;;;;;2.03;1.45;;;;;;;;;;4982146;28;20069;-87
2022/07/05 13:24:39;;;;;;;4.20;1.83;;;;;;;;;;4981722;28;20491;-87
2022/07/05 13:27:06;;;;;;;2.75;1.60;;;;;;;;;;4982474;28;20040;-86
2022/07/05 13:29:32;;;;;;;2.63;1.70;;;;;;;;;;4999874;28;20121;-87
2022/07/05 13:31:58;;;;;;;6.03;1.65;;;;;;;;;;4982741;28;20077;-86
2022/07/05 13:34:25;;;;;;;2.05;1.50;;;;;;;;;;4999136;28;20042;-86
2022/07/05 13:36:52;;;;;;;3.42;1.60;;;;;;;;;;4982619;28;20057;-86
2022/07/05 13:39:19;;;;;;;2.78;1.60;;;;;;;;;;4999517;28;20034;-87
2022/07/05 13:41:50;;;;;;;4.18;1.63;;;;;;;;;;4982809;28;20042;-87
2022/07/05 13:44:16;;;;;;;2.83;1.60;;;;;;;;;;4998466;28;20063;-87
2022/07/05 13:46:41;;;;;;;2.53;1.80;;;;;;;;;;4983437;28;20038;-88
2022/07/05 13:49:07;;;;;;;2.50;1.60;;;;;;;;;;4983628;28;20034;-88
2022/07/05 13:51:32;;;;;;;2.63;2.00;;;;;;;;;;4999417;28;20029;-85
2022/07/05 13:53:58;;;;;;;4.20;1.90;;;;;;;;;;4982425;28;20034;-85
2022/07/05 13:56:25;;;;;;;2.53;1.70;;;;;;;;;;4982224;28;20057;-86
2022/07/05 13:58:51;;;;;;;3.88;1.90;;;;;;;;;;4998251;28;20034;-87
2022/07/05 14:01:19;;;;;;;3.08;1.92;;;;;;;;;;4999070;28;20035;-86
2022/07/05 14:03:45;;;;;;;3.85;1.75;;;;;;;;;;4982151;28;20030;-86
2022/07/05 14:06:11;;;;;;;3.15;1.67;;;;;;;;;;4998816;28;20388;-87
2022/07/05 14:08:36;;;;;;;3.05;1.70;;;;;;;;;;4998501;28;20094;-87
2022/07/05 14:11:03;;;;;;;3.13;1.92;;;;;;;;;;4999075;28;20022;-86
2022/07/05 14:13:29;;;;;;;2.53;1.60;;;;;;;;;;4998476;28;20106;-87
2022/07/05 14:15:55;;;;;;;2.72;1.67;;;;;;;;;;4982762;28;20057;-88
2022/07/05 14:18:21;;;;;;;5.03;2.30;;;;;;;;;;4981949;28;20042;-87
2022/07/05 14:20:48;;;;;;;4.13;1.95;;;;;;;;;;4982623;28;20030;-86
2022/07/05 14:23:14;;;;;;;5.15;2.00;;;;;;;;;;4999375;28;20042;-87
2022/07/05 14:25:40;;;;;;;4.90;1.90;;;;;;;;;;4999520;28;20030;-87
2022/07/05 14:28:09;;;;;;;2.33;1.80;;;;;;;;;;5000310;28;20125;-88
2022/07/05 14:30:37;;;;;;;2.03;1.70;;;;;;;;;;4982547;28;20086;-88
2022/07/05 14:33:02;;;;;;;2.47;1.60;;;;;;;;;;5001352;28;20054;-86
2022/07/05 14:35:29;;;;;;;2.05;1.58;;;;;;;;;;4997146;28;20023;-87
2022/07/05 14:37:55;;;;;;;2.38;1.50;;;;;;;;;;4997381;28;20043;-86
2022/07/05 14:40:23;;;;;;;4.55;1.70;;;;;;;;;;4999534;28;20030;-87
2022/07/05 14:42:50;;;;;;;5.55;1.80;;;;;;;;;;4981283;28;20034;-87
2022/07/05 14:45:16;;;;;;;4.22;1.70;;;;;;;;;;4997028;28;20034;-86
2022/07/05 14:47:41;;;;;;;3.63;1.75;;;;;;;;;;4981450;28;20049;-87
2022/07/05 14:50:07;;;;;;;3.33;1.77;;;;;;;;;;4997543;28;20037;-86
2022/07/05 14:52:33;;;;;;;4.97;1.60;;;;;;;;;;4998048;28;20109;-87
2022/07/05 14:54:58;;;;;;;4.63;1.95;;;;;;;;;;4980352;28;20034;-86
2022/07/05 14:57:24;;;;;;;3.80;1.80;;;;;;;;;;4980334;28;20034;-87
2022/07/05 14:59:50;;;;;;;2.50;1.80;;;;;;;;;;4996821;28;20065;-86
2022/07/05 15:02:15;;;;;;;3.13;1.67;;;;;;;;;;4999286;28;20045;-87